Time;durP1;ratioP1;P1;durP2;ratioP2;P2;SDS_P1;SDS_P2;PMS_P1;PMS_P2;Temp;Humidity;BMP_temperature;BMP_pressure;BME280_temperature;BME280_humidity;BME280_pressure;Samples;Min_cycle;Max_cycle;Signal;HPM_P1;HPM_P2
2022/07/12 00:00:50;;;;;;;;;;;16.30;99.90;;;;;;5028996;28;19921;-69
2022/07/12 00:03:16;;;;;;;;;;;16.30;99.90;;;;;;5032127;28;20074;-69
2022/07/12 00:05:42;;;;;;;;;;;16.30;99.90;;;;;;5024660;28;20326;-69
2022/07/12 00:08:09;;;;;;;;;;;16.30;99.90;;;;;;5008428;28;19928;-69
2022/07/12 00:10:35;;;;;;;;;;;16.30;99.90;;;;;;5024605;28;19921;-68
2022/07/12 00:13:01;;;;;;;;;;;16.30;99.90;;;;;;5031449;28;19921;-68
2022/07/12 00:15:27;;;;;;;;;;;16.30;99.90;;;;;;5027780;28;19933;-72
2022/07/12 00:17:52;;;;;;;;;;;16.30;99.90;;;;;;5023729;28;19936;-68
2022/07/12 00:20:18;;;;;;;;;;;16.30;99.90;;;;;;5025375;28;19928;-69
2022/07/12 00:22:43;;;;;;;;;;;16.30;99.90;;;;;;5028965;28;19929;-68
2022/07/12 00:25:09;;;;;;;;;;;16.30;99.90;;;;;;5031000;28;20282;-68
2022/07/12 00:27:34;;;;;;;;;;;16.30;99.90;;;;;;5030648;28;19928;-73
2022/07/12 00:30:00;;;;;;;;;;;16.30;99.90;;;;;;5025933;28;20004;-68
2022/07/12 00:32:28;;;;;;;;;;;16.20;99.90;;;;;;5026106;28;21884;-69
2022/07/12 00:34:53;;;;;;;;;;;16.30;99.90;;;;;;5024315;28;19925;-70
2022/07/12 00:37:19;;;;;;;;;;;16.30;99.90;;;;;;5021813;28;19932;-71
2022/07/12 00:39:45;;;;;;;;;;;16.30;99.90;;;;;;5024325;28;19932;-71
2022/07/12 00:42:11;;;;;;;;;;;16.20;99.90;;;;;;5027098;28;20012;-71
2022/07/12 00:44:36;;;;;;;;;;;16.20;99.90;;;;;;5018102;28;20326;-71
2022/07/12 00:47:02;;;;;;;;;;;16.30;99.90;;;;;;5023794;28;19967;-71
2022/07/12 00:49:29;;;;;;;;;;;16.20;99.90;;;;;;5023371;28;19925;-70
2022/07/12 00:51:54;;;;;;;;;;;16.20;99.90;;;;;;5027854;28;19979;-71
2022/07/12 00:54:20;;;;;;;;;;;16.20;99.90;;;;;;5022721;28;19929;-71
2022/07/12 00:56:46;;;;;;;;;;;16.20;99.90;;;;;;5026910;28;19925;-71
2022/07/12 00:59:12;;;;;;;;;;;16.20;99.90;;;;;;5027974;28;20286;-70
2022/07/12 01:01:37;;;;;;;;;;;16.20;99.90;;;;;;5027566;28;19944;-70
2022/07/12 01:04:03;;;;;;;;;;;16.10;99.90;;;;;;5031651;28;20366;-70
2022/07/12 01:06:30;;;;;;;;;;;16.20;99.90;;;;;;5030154;28;20386;-70
2022/07/12 01:08:56;;;;;;;;;;;16.10;99.90;;;;;;5024132;28;20238;-70
2022/07/12 01:11:21;;;;;;;;;;;16.10;99.90;;;;;;5030288;28;19925;-70
2022/07/12 01:13:47;;;;;;;;;;;16.10;99.90;;;;;;5032665;28;20400;-70
2022/07/12 01:16:14;;;;;;;;;;;16.10;99.90;;;;;;5029824;28;19932;-70
2022/07/12 01:18:40;;;;;;;;;;;16.10;99.90;;;;;;5020587;28;19925;-70
2022/07/12 01:21:07;;;;;;;;;;;16.10;99.90;;;;;;5033781;28;19927;-70
2022/07/12 01:23:34;;;;;;;;;;;16.00;99.90;;;;;;5030785;28;20333;-70
2022/07/12 01:25:59;;;;;;;;;;;16.00;99.90;;;;;;5032119;28;19925;-70
2022/07/12 01:28:25;;;;;;;;;;;16.00;99.90;;;;;;5033303;28;19921;-71
2022/07/12 01:30:50;;;;;;;;;;;16.00;99.90;;;;;;5028410;28;20409;-71
2022/07/12 01:33:16;;;;;;;;;;;16.00;99.90;;;;;;5039732;28;20510;-71
2022/07/12 01:35:42;;;;;;;;;;;16.00;99.90;;;;;;5029269;28;19929;-71
2022/07/12 01:38:08;;;;;;;;;;;16.00;99.90;;;;;;5034447;28;20695;-71
2022/07/12 01:40:35;;;;;;;;;;;15.90;99.90;;;;;;5025571;28;20000;-72
2022/07/12 01:43:01;;;;;;;;;;;15.90;99.90;;;;;;5026423;28;20281;-71
2022/07/12 01:45:27;;;;;;;;;;;15.90;99.90;;;;;;5026204;28;19921;-71
2022/07/12 01:47:53;;;;;;;;;;;15.90;99.90;;;;;;5028869;28;19952;-71
2022/07/12 01:50:18;;;;;;;;;;;15.90;99.90;;;;;;5029701;28;20016;-71
2022/07/12 01:52:44;;;;;;;;;;;15.90;99.90;;;;;;5026096;28;20008;-69
2022/07/12 01:55:10;;;;;;;;;;;15.90;99.90;;;;;;5028567;28;20296;-69
2022/07/12 01:57:37;;;;;;;;;;;15.80;99.90;;;;;;5020515;28;19925;-75
2022/07/12 02:00:06;;;;;;;;;;;15.80;99.90;;;;;;5022298;28;19928;-70
2022/07/12 02:02:32;;;;;;;;;;;15.80;99.90;;;;;;5025018;28;20332;-71
2022/07/12 02:04:58;;;;;;;;;;;15.70;99.90;;;;;;5032353;28;19950;-69
2022/07/12 02:07:24;;;;;;;;;;;15.70;99.90;;;;;;5027054;28;19929;-69
2022/07/12 02:09:50;;;;;;;;;;;15.70;99.90;;;;;;5022984;28;20044;-68
2022/07/12 02:12:15;;;;;;;;;;;15.70;99.90;;;;;;5039877;28;20387;-69
2022/07/12 02:14:41;;;;;;;;;;;15.60;99.90;;;;;;5032045;28;19975;-69
2022/07/12 02:17:07;;;;;;;;;;;15.70;99.90;;;;;;5006356;28;19928;-69
2022/07/12 02:19:32;;;;;;;;;;;15.60;99.90;;;;;;5024394;28;19975;-69
2022/07/12 02:21:58;;;;;;;;;;;15.70;99.90;;;;;;5022722;28;20394;-68
2022/07/12 02:24:23;;;;;;;;;;;15.60;99.90;;;;;;5021663;28;20396;-68
2022/07/12 02:26:49;;;;;;;;;;;15.60;99.90;;;;;;5021709;28;20047;-69
2022/07/12 02:29:15;;;;;;;;;;;15.60;99.90;;;;;;5023867;28;19921;-69
2022/07/12 02:31:40;;;;;;;;;;;15.60;99.90;;;;;;5020032;28;21427;-69
2022/07/12 02:34:06;;;;;;;;;;;15.60;99.90;;;;;;5022288;28;19925;-69
2022/07/12 02:36:33;;;;;;;;;;;15.60;99.90;;;;;;5021459;28;20444;-69
2022/07/12 02:39:02;;;;;;;;;;;15.50;99.90;;;;;;5028225;28;19924;-69
2022/07/12 02:41:28;;;;;;;;;;;15.60;99.90;;;;;;5025078;28;19940;-69
2022/07/12 02:43:54;;;;;;;;;;;15.60;99.90;;;;;;5025498;28;19925;-69
2022/07/12 02:46:19;;;;;;;;;;;15.50;99.90;;;;;;5020547;28;19927;-69
2022/07/12 02:48:45;;;;;;;;;;;15.50;99.90;;;;;;5030923;28;19921;-69
2022/07/12 02:51:11;;;;;;;;;;;15.50;99.90;;;;;;5026072;28;19921;-69
2022/07/12 02:53:37;;;;;;;;;;;15.50;99.90;;;;;;5021706;28;19979;-69
2022/07/12 02:56:02;;;;;;;;;;;15.60;99.90;;;;;;5016318;28;20309;-69
2022/07/12 02:58:28;;;;;;;;;;;15.50;99.90;;;;;;5020328;28;19976;-70
2022/07/12 03:00:54;;;;;;;;;;;15.50;99.90;;;;;;5018627;28;19921;-70
2022/07/12 03:03:19;;;;;;;;;;;15.50;99.90;;;;;;5038947;28;19925;-70
2022/07/12 03:05:45;;;;;;;;;;;15.50;99.90;;;;;;5026975;28;19921;-70
2022/07/12 03:08:11;;;;;;;;;;;15.40;99.90;;;;;;5029025;28;20357;-70
2022/07/12 03:10:37;;;;;;;;;;;15.40;99.90;;;;;;5018161;28;19975;-70
2022/07/12 03:13:03;;;;;;;;;;;15.40;99.90;;;;;;5029400;28;19921;-70
2022/07/12 03:15:29;;;;;;;;;;;15.40;99.90;;;;;;5005557;28;19929;-70
2022/07/12 03:17:55;;;;;;;;;;;15.40;99.90;;;;;;5024863;28;19927;-70
2022/07/12 03:20:21;;;;;;;;;;;15.40;99.90;;;;;;5026791;28;19921;-70
2022/07/12 03:22:48;;;;;;;;;;;15.40;99.90;;;;;;5030469;28;19971;-71
2022/07/12 03:25:14;;;;;;;;;;;15.40;99.90;;;;;;5033104;28;19925;-70
2022/07/12 03:27:40;;;;;;;;;;;15.40;99.90;;;;;;5029405;28;19921;-70
2022/07/12 03:30:06;;;;;;;;;;;15.40;99.90;;;;;;5026451;28;19921;-70
2022/07/12 03:32:32;;;;;;;;;;;15.40;99.90;;;;;;5023149;28;19928;-70
2022/07/12 03:34:57;;;;;;;;;;;15.30;99.90;;;;;;5033883;28;20459;-70
2022/07/12 03:37:23;;;;;;;;;;;15.30;99.90;;;;;;5032936;28;19921;-70
2022/07/12 03:39:49;;;;;;;;;;;15.30;99.90;;;;;;5028999;28;19944;-70
2022/07/12 03:42:14;;;;;;;;;;;15.20;99.90;;;;;;5032547;28;19964;-70
2022/07/12 03:44:41;;;;;;;;;;;15.20;99.90;;;;;;5023199;28;19925;-70
2022/07/12 03:47:07;;;;;;;;;;;15.20;99.90;;;;;;5028631;28;19968;-70
2022/07/12 03:49:32;;;;;;;;;;;15.20;99.90;;;;;;5028986;28;19975;-70
2022/07/12 03:51:58;;;;;;;;;;;15.00;99.90;;;;;;5010330;28;20374;-70
2022/07/12 03:54:23;;;;;;;;;;;15.10;99.90;;;;;;5030529;28;19959;-70
2022/07/12 03:59:33;;;;;;;;;;;15.00;99.90;;;;;;5024609;28;20333;-70
2022/07/12 04:01:59;;;;;;;;;;;14.90;99.90;;;;;;5022864;28;19971;-70
2022/07/12 04:04:25;;;;;;;;;;;15.00;99.90;;;;;;5027954;28;19921;-70
2022/07/12 04:06:51;;;;;;;;;;;14.90;99.90;;;;;;5025491;28;20023;-70
2022/07/12 04:09:16;;;;;;;;;;;14.90;99.90;;;;;;5027021;28;20020;-70
2022/07/12 04:11:42;;;;;;;;;;;14.90;99.90;;;;;;5023630;28;20273;-69
2022/07/12 04:14:10;;;;;;;;;;;14.90;99.90;;;;;;5023696;28;20012;-70
2022/07/12 04:16:35;;;;;;;;;;;14.90;99.90;;;;;;5025142;28;19931;-70
2022/07/12 04:19:01;;;;;;;;;;;14.90;99.90;;;;;;5020015;28;19921;-70
2022/07/12 04:21:27;;;;;;;;;;;14.90;99.90;;;;;;5033216;28;19979;-70
2022/07/12 04:23:52;;;;;;;;;;;14.80;99.90;;;;;;5023005;28;19925;-70
2022/07/12 04:26:18;;;;;;;;;;;14.90;99.90;;;;;;5015566;28;19921;-69
2022/07/12 04:28:43;;;;;;;;;;;14.90;99.90;;;;;;5034667;22;19925;-70
2022/07/12 04:31:09;;;;;;;;;;;14.80;99.90;;;;;;5004851;28;19929;-70
2022/07/12 04:33:35;;;;;;;;;;;14.90;99.90;;;;;;5006558;28;19937;-70
2022/07/12 04:36:00;;;;;;;;;;;14.80;99.90;;;;;;5021364;28;19982;-70
2022/07/12 04:38:26;;;;;;;;;;;14.80;99.90;;;;;;5011869;28;19921;-71
2022/07/12 04:40:51;;;;;;;;;;;14.90;99.90;;;;;;5007497;28;19921;-70
2022/07/12 04:43:17;;;;;;;;;;;14.80;99.90;;;;;;5023542;28;20532;-70
2022/07/12 04:45:44;;;;;;;;;;;14.80;99.90;;;;;;5014661;28;19921;-72
2022/07/12 04:48:09;;;;;;;;;;;14.90;99.90;;;;;;5018550;28;19933;-70
2022/07/12 04:50:35;;;;;;;;;;;14.90;99.90;;;;;;5010741;28;19943;-70
2022/07/12 04:53:01;;;;;;;;;;;14.90;99.90;;;;;;5010175;28;22184;-70
2022/07/12 04:55:26;;;;;;;;;;;15.00;99.90;;;;;;5018650;28;19948;-70
2022/07/12 04:57:52;;;;;;;;;;;15.00;99.90;;;;;;5019872;28;19956;-70
2022/07/12 05:00:17;;;;;;;;;;;15.10;99.90;;;;;;5017030;28;19928;-70
2022/07/12 05:02:43;;;;;;;;;;;15.20;99.90;;;;;;5004166;28;20052;-69
2022/07/12 05:05:08;;;;;;;;;;;15.20;99.90;;;;;;5023932;28;19929;-70
2022/07/12 05:07:34;;;;;;;;;;;15.20;99.90;;;;;;5019897;28;20368;-70
2022/07/12 05:10:00;;;;;;;;;;;15.30;99.90;;;;;;5014519;28;20017;-70
2022/07/12 05:12:25;;;;;;;;;;;15.30;99.90;;;;;;5002300;28;19921;-70
2022/07/12 05:14:51;;;;;;;;;;;15.30;99.90;;;;;;4992595;28;19925;-71
2022/07/12 05:17:16;;;;;;;;;;;15.40;99.90;;;;;;5001634;28;19936;-70
2022/07/12 05:19:42;;;;;;;;;;;15.40;99.90;;;;;;5008923;28;19973;-70
2022/07/12 05:22:07;;;;;;;;;;;15.40;99.90;;;;;;4997392;28;19921;-71
2022/07/12 05:24:33;;;;;;;;;;;15.40;99.90;;;;;;5022992;28;19921;-71
2022/07/12 05:26:58;;;;;;;;;;;15.40;99.90;;;;;;5008673;28;20423;-70
2022/07/12 05:29:24;;;;;;;;;;;15.50;99.90;;;;;;5012089;28;19921;-70
2022/07/12 05:31:49;;;;;;;;;;;15.50;99.90;;;;;;5029124;28;19925;-70
2022/07/12 05:34:15;;;;;;;;;;;15.50;99.90;;;;;;5023495;28;19963;-71
2022/07/12 05:36:40;;;;;;;;;;;15.50;99.90;;;;;;5006523;28;20370;-70
2022/07/12 05:39:06;;;;;;;;;;;15.60;99.90;;;;;;5020168;28;19929;-71
2022/07/12 05:41:32;;;;;;;;;;;15.60;99.90;;;;;;5004357;28;19921;-70
2022/07/12 05:43:57;;;;;;;;;;;15.60;99.90;;;;;;5004194;28;19921;-72
2022/07/12 05:46:23;;;;;;;;;;;15.60;99.90;;;;;;4996833;28;19929;-71
2022/07/12 05:48:48;;;;;;;;;;;15.70;99.90;;;;;;5001681;28;19929;-69
2022/07/12 05:53:58;;;;;;;;;;;15.70;99.90;;;;;;4994960;28;20031;-69
2022/07/12 05:56:24;;;;;;;;;;;15.80;99.90;;;;;;5021971;28;20410;-70
2022/07/12 05:58:50;;;;;;;;;;;15.80;99.90;;;;;;5010173;28;20388;-71
2022/07/12 06:01:16;;;;;;;;;;;15.80;99.90;;;;;;5014205;28;22533;-71
2022/07/12 06:03:42;;;;;;;;;;;15.90;99.90;;;;;;5020436;28;20261;-69
2022/07/12 06:06:08;;;;;;;;;;;16.00;99.90;;;;;;5024841;28;19933;-71
2022/07/12 06:08:33;;;;;;;;;;;15.90;99.90;;;;;;5023083;28;19998;-70
2022/07/12 06:10:59;;;;;;;;;;;16.00;99.90;;;;;;5005095;28;19965;-70
2022/07/12 06:13:24;;;;;;;;;;;15.90;99.90;;;;;;5022908;28;20289;-70
2022/07/12 06:15:50;;;;;;;;;;;16.00;99.90;;;;;;5023238;28;20887;-71
2022/07/12 06:18:16;;;;;;;;;;;16.00;99.90;;;;;;5019449;28;19932;-70
2022/07/12 06:20:41;;;;;;;;;;;16.10;99.90;;;;;;5024032;28;19925;-70
2022/07/12 06:23:07;;;;;;;;;;;16.10;99.90;;;;;;5018310;28;19926;-71
2022/07/12 06:25:32;;;;;;;;;;;16.10;99.90;;;;;;5020102;28;19925;-70
2022/07/12 06:28:01;;;;;;;;;;;16.20;99.90;;;;;;5015646;28;19925;-71
2022/07/12 06:30:27;;;;;;;;;;;16.20;99.90;;;;;;5017338;28;20020;-70
2022/07/12 06:32:52;;;;;;;;;;;16.30;99.90;;;;;;5027122;28;19928;-70
2022/07/12 06:35:18;;;;;;;;;;;16.40;99.90;;;;;;5005345;28;19925;-70
2022/07/12 06:37:43;;;;;;;;;;;16.40;99.90;;;;;;5001863;28;20358;-72
2022/07/12 06:40:09;;;;;;;;;;;16.50;99.90;;;;;;5000880;28;19937;-72
2022/07/12 06:42:35;;;;;;;;;;;16.60;99.90;;;;;;5024089;28;20399;-70
2022/07/12 06:45:01;;;;;;;;;;;16.60;99.90;;;;;;5017805;28;20325;-70
2022/07/12 06:47:27;;;;;;;;;;;16.70;99.90;;;;;;5002155;28;19940;-70
2022/07/12 06:49:52;;;;;;;;;;;16.80;99.90;;;;;;5013686;28;19936;-70
2022/07/12 06:52:18;;;;;;;;;;;16.90;99.90;;;;;;5020557;28;19943;-71
2022/07/12 06:54:43;;;;;;;;;;;16.90;99.90;;;;;;5020824;28;20026;-70
2022/07/12 06:57:09;;;;;;;;;;;17.00;99.90;;;;;;5019345;28;19932;-69
2022/07/12 06:59:35;;;;;;;;;;;17.10;99.90;;;;;;5017901;28;19925;-70
2022/07/12 07:02:01;;;;;;;;;;;17.10;99.90;;;;;;5005215;28;20143;-71
2022/07/12 07:04:26;;;;;;;;;;;17.20;99.90;;;;;;5024242;28;20008;-72
2022/07/12 07:06:52;;;;;;;;;;;17.20;99.90;;;;;;5025200;28;20306;-70
2022/07/12 07:09:17;;;;;;;;;;;17.30;99.90;;;;;;5021937;28;20019;-71
2022/07/12 07:11:43;;;;;;;;;;;17.40;99.90;;;;;;5008372;28;20353;-70
2022/07/12 07:14:09;;;;;;;;;;;17.50;99.90;;;;;;5004145;28;21479;-69
2022/07/12 07:16:34;;;;;;;;;;;17.60;99.90;;;;;;5023676;28;20376;-69
2022/07/12 07:19:00;;;;;;;;;;;17.70;99.90;;;;;;5023865;28;19928;-69
2022/07/12 07:21:26;;;;;;;;;;;17.80;99.90;;;;;;5003474;28;20353;-69
2022/07/12 07:23:52;;;;;;;;;;;17.90;99.90;;;;;;5006568;28;19983;-70
2022/07/12 07:26:17;;;;;;;;;;;18.00;99.90;;;;;;5020489;28;19927;-69
2022/07/12 07:31:35;;;;;;;;;;;18.20;99.90;;;;;;4994037;28;20000;-70
2022/07/12 07:34:01;;;;;;;;;;;18.30;99.90;;;;;;5021702;28;19921;-71
2022/07/12 07:36:26;;;;;;;;;;;18.40;99.90;;;;;;5016754;28;20435;-72
2022/07/12 07:38:52;;;;;;;;;;;18.50;99.90;;;;;;5015341;28;20275;-73
2022/07/12 07:41:17;;;;;;;;;;;18.60;99.90;;;;;;5006908;28;20020;-72
2022/07/12 07:43:43;;;;;;;;;;;18.70;99.90;;;;;;5021498;28;19997;-72
2022/07/12 07:46:08;;;;;;;;;;;18.80;99.90;;;;;;5009115;28;19998;-69
2022/07/12 07:48:34;;;;;;;;;;;18.90;99.90;;;;;;5022085;28;19950;-70
2022/07/12 07:50:59;;;;;;;;;;;19.00;99.90;;;;;;4996986;28;19990;-72
2022/07/12 07:53:25;;;;;;;;;;;19.10;99.90;;;;;;5020283;28;19972;-70
2022/07/12 07:55:50;;;;;;;;;;;19.10;99.90;;;;;;5020653;28;19940;-70
2022/07/12 07:58:16;;;;;;;;;;;19.10;99.90;;;;;;5028425;28;19961;-71
2022/07/12 08:00:42;;;;;;;;;;;19.20;99.90;;;;;;5014922;28;20274;-69
2022/07/12 08:03:07;;;;;;;;;;;19.30;99.90;;;;;;5018342;28;19921;-69
2022/07/12 08:05:33;;;;;;;;;;;19.30;99.90;;;;;;5009150;28;20254;-70
2022/07/12 08:07:58;;;;;;;;;;;19.40;99.90;;;;;;5023235;28;20384;-71
2022/07/12 08:10:24;;;;;;;;;;;19.40;99.90;;;;;;5001084;28;20153;-71
2022/07/12 08:12:50;;;;;;;;;;;19.40;99.90;;;;;;5007794;28;19928;-69
2022/07/12 08:15:15;;;;;;;;;;;19.50;99.90;;;;;;5009177;28;19925;-70
2022/07/12 08:17:41;;;;;;;;;;;19.40;99.90;;;;;;5022657;28;20023;-72
2022/07/12 08:20:07;;;;;;;;;;;19.50;99.90;;;;;;5026037;28;19921;-69
2022/07/12 08:22:32;;;;;;;;;;;19.50;99.90;;;;;;5034838;28;20062;-70
2022/07/12 08:24:57;;;;;;;;;;;19.60;99.90;;;;;;5002026;28;20069;-71
2022/07/12 08:27:23;;;;;;;;;;;19.60;99.90;;;;;;5020700;28;19944;-70
2022/07/12 08:29:49;;;;;;;;;;;19.70;99.90;;;;;;5026260;28;20019;-70
2022/07/12 08:32:15;;;;;;;;;;;19.70;99.90;;;;;;5008808;28;20382;-72
2022/07/12 08:34:41;;;;;;;;;;;19.80;99.90;;;;;;4993444;28;19928;-70
2022/07/12 08:37:06;;;;;;;;;;;19.90;99.90;;;;;;5009844;28;20393;-69
2022/07/12 08:39:32;;;;;;;;;;;20.00;99.90;;;;;;5027861;28;20128;-69
2022/07/12 08:41:57;;;;;;;;;;;19.90;99.90;;;;;;5008163;28;20312;-70
2022/07/12 08:44:23;;;;;;;;;;;20.10;99.90;;;;;;5018593;28;19962;-71
2022/07/12 08:46:48;;;;;;;;;;;20.20;99.90;;;;;;4999830;28;19924;-69
2022/07/12 08:49:14;;;;;;;;;;;20.20;99.90;;;;;;5030149;28;20209;-70
2022/07/12 08:51:39;;;;;;;;;;;20.30;99.90;;;;;;5022122;28;19929;-69
2022/07/12 08:54:06;;;;;;;;;;;20.40;99.90;;;;;;5019765;28;20377;-69
2022/07/12 08:56:32;;;;;;;;;;;20.40;99.90;;;;;;5026732;28;19932;-69
2022/07/12 08:59:10;;;;;;;;;;;20.50;99.90;;;;;;5019041;28;19921;-70
2022/07/12 09:01:42;;;;;;;;;;;20.50;99.90;;;;;;4994244;28;19922;-69
2022/07/12 09:04:12;;;;;;;;;;;20.60;99.90;;;;;;5004634;28;19936;-69
2022/07/12 09:06:37;;;;;;;;;;;20.70;99.90;;;;;;5006528;28;19929;-69
2022/07/12 09:09:03;;;;;;;;;;;20.80;99.90;;;;;;5009352;28;20369;-69
2022/07/12 09:11:28;;;;;;;;;;;20.90;99.90;;;;;;5008732;28;20321;-69
2022/07/12 09:13:55;;;;;;;;;;;21.00;99.90;;;;;;5028026;28;20059;-70
2022/07/12 09:16:22;;;;;;;;;;;21.20;99.90;;;;;;5025101;28;19937;-69
2022/07/12 09:18:47;;;;;;;;;;;21.20;99.90;;;;;;5023525;28;19995;-69
2022/07/12 09:21:23;;;;;;;;;;;21.30;99.90;;;;;;5026320;28;20472;-69
2022/07/12 09:23:53;;;;;;;;;;;21.40;99.90;;;;;;5008923;28;19946;-69
2022/07/12 09:26:18;;;;;;;;;;;21.40;99.90;;;;;;5004686;28;19960;-69
2022/07/12 09:28:44;;;;;;;;;;;21.50;99.90;;;;;;5013294;28;19972;-70
2022/07/12 09:31:10;;;;;;;;;;;21.60;99.90;;;;;;5019116;28;20279;-70
2022/07/12 09:36:23;;;;;;;;;;;21.80;99.90;;;;;;5013185;28;19925;-68
2022/07/12 09:38:52;;;;;;;;;;;21.90;99.90;;;;;;5015030;28;19978;-69
2022/07/12 09:41:19;;;;;;;;;;;22.00;99.90;;;;;;5017025;28;20754;-70
2022/07/12 09:43:44;;;;;;;;;;;22.00;99.90;;;;;;5018031;28;19932;-69
2022/07/12 09:46:10;;;;;;;;;;;22.20;99.90;;;;;;5009092;28;19921;-70
2022/07/12 09:48:40;;;;;;;;;;;22.30;99.90;;;;;;4998093;28;19924;-70
2022/07/12 09:51:08;;;;;;;;;;;22.40;99.90;;;;;;5013127;28;19975;-69
2022/07/12 09:53:37;;;;;;;;;;;22.50;99.90;;;;;;5012036;28;19932;-69
2022/07/12 09:56:05;;;;;;;;;;;22.60;99.90;;;;;;4999898;28;20611;-69
2022/07/12 09:58:31;;;;;;;;;;;22.70;99.90;;;;;;5018713;28;19968;-69
2022/07/12 10:00:59;;;;;;;;;;;22.80;99.90;;;;;;5017751;28;20397;-70
2022/07/12 10:03:27;;;;;;;;;;;22.80;99.90;;;;;;5018927;28;19935;-71
2022/07/12 10:05:54;;;;;;;;;;;22.90;99.90;;;;;;5000823;28;20650;-71
2022/07/12 10:08:20;;;;;;;;;;;22.90;99.90;;;;;;5018705;28;20028;-71
2022/07/12 10:10:46;;;;;;;;;;;23.00;99.90;;;;;;5000157;28;20346;-71
2022/07/12 10:13:13;;;;;;;;;;;23.00;99.90;;;;;;5015088;28;19952;-71
2022/07/12 10:15:38;;;;;;;;;;;23.00;99.90;;;;;;4997379;28;19935;-69
2022/07/12 10:18:05;;;;;;;;;;;23.10;99.90;;;;;;5013393;28;20398;-69
2022/07/12 10:20:31;;;;;;;;;;;23.00;99.90;;;;;;5013316;28;19987;-69
2022/07/12 10:23:15;;;;;;;;;;;23.10;99.90;;;;;;5020048;28;20041;-70
2022/07/12 10:25:41;;;;;;;;;;;23.10;99.90;;;;;;4997947;28;19922;-69
2022/07/12 10:28:07;;;;;;;;;;;23.20;99.90;;;;;;4983754;28;20325;-69
2022/07/12 10:30:42;;;;;;;;;;;23.20;99.90;;;;;;5197018;23;19931;-68
2022/07/12 10:33:14;;;;;;;;;;;23.30;99.90;;;;;;5082222;28;19920;-67
2022/07/12 10:35:56;;;;;;;;;;;23.30;99.90;;;;;;5081248;28;20019;-68
2022/07/12 10:38:22;;;;;;;;;;;23.30;99.90;;;;;;5069828;28;19989;-68
2022/07/12 10:40:48;;;;;;;;;;;23.40;99.90;;;;;;5064083;28;19928;-68
2022/07/12 10:43:15;;;;;;;;;;;23.50;99.90;;;;;;5060956;28;19920;-68
2022/07/12 10:45:42;;;;;;;;;;;23.60;99.90;;;;;;5048362;28;20343;-67
2022/07/12 10:48:08;;;;;;;;;;;23.70;99.90;;;;;;5056563;28;19932;-68
2022/07/12 10:50:43;;;;;;;;;;;23.70;99.90;;;;;;5056340;28;19921;-68
2022/07/12 10:53:21;;;;;;;;;;;23.90;99.90;;;;;;5057892;28;19925;-68
2022/07/12 10:56:06;;;;;;;;;;;24.00;99.90;;;;;;5055363;28;20446;-67
2022/07/12 10:58:32;;;;;;;;;;;24.10;99.90;;;;;;5063902;28;19920;-67
2022/07/12 11:00:59;;;;;;;;;;;24.10;99.90;;;;;;5057202;28;19924;-68
2022/07/12 11:03:30;;;;;;;;;;;24.10;99.90;;;;;;5057162;28;19973;-68
2022/07/12 11:06:01;;;;;;;;;;;24.20;99.90;;;;;;5058749;28;19920;-68
2022/07/12 11:08:27;;;;;;;;;;;24.30;99.90;;;;;;5053580;28;20027;-67
2022/07/12 11:10:56;;;;;;;;;;;24.40;99.90;;;;;;5053956;28;20014;-68
2022/07/12 11:13:23;;;;;;;;;;;24.40;99.90;;;;;;5059429;28;19932;-68
2022/07/12 11:15:59;;;;;;;;;;;24.50;99.90;;;;;;5053856;28;20172;-67
2022/07/12 11:27:47;;;;;;;4.43;3.00;;;24.90;99.90;;;;;;5066118;28;20514;-68
2022/07/12 11:30:13;;;;;;;4.50;2.50;;;24.90;99.90;;;;;;5052171;28;20121;-68
2022/07/12 11:32:41;;;;;;;3.75;2.10;;;25.00;99.90;;;;;;5050773;28;20424;-68
2022/07/12 11:35:20;;;;;;;5.63;2.70;;;25.10;99.90;;;;;;5050131;28;20132;-68
2022/07/12 11:37:54;;;;;;;2.70;1.75;;;25.10;99.90;;;;;;5047219;28;20037;-68
2022/07/12 11:40:28;;;;;;;3.50;2.20;;;25.20;99.90;;;;;;5045079;28;20036;-68
2022/07/12 11:43:04;;;;;;;4.35;2.15;;;25.20;99.90;;;;;;5052255;28;20467;-68
2022/07/12 11:45:32;;;;;;;3.58;2.00;;;25.30;99.90;;;;;;5041282;28;20045;-68
2022/07/12 11:47:59;;;;;;;4.03;2.20;;;25.30;99.90;;;;;;5050158;28;20067;-68
2022/07/12 11:50:25;;;;;;;3.28;2.22;;;25.30;99.90;;;;;;5051575;28;20037;-68
2022/07/12 11:52:51;;;;;;;3.75;2.40;;;25.40;99.90;;;;;;5051175;28;20385;-68
2022/07/12 11:55:17;;;;;;;4.35;2.50;;;25.40;99.90;;;;;;5049194;28;20033;-68
2022/07/12 11:57:43;;;;;;;3.47;1.77;;;25.40;99.90;;;;;;5045843;28;20104;-68
2022/07/12 12:00:16;;;;;;;3.15;2.03;;;25.40;99.90;;;;;;5048930;28;20045;-68
2022/07/12 12:02:42;;;;;;;3.25;1.70;;;25.50;99.90;;;;;;5045386;28;20167;-68
2022/07/12 12:05:08;;;;;;;5.53;2.00;;;25.50;99.90;;;;;;5047422;28;20028;-68
2022/07/12 12:07:34;;;;;;;5.63;2.20;;;25.70;99.90;;;;;;5043831;28;20123;-68
2022/07/12 12:10:17;;;;;;;3.28;1.50;;;25.80;99.90;;;;;;5050932;28;20171;-68
2022/07/12 12:12:45;;;;;;;2.22;1.30;;;25.90;99.90;;;;;;5052599;28;20049;-68
2022/07/12 12:15:24;;;;;;;2.00;1.30;;;25.90;99.90;;;;;;5045315;28;20037;-68
2022/07/12 12:18:04;;;;;;;2.67;1.20;;;26.00;99.90;;;;;;5048967;28;20447;-68
2022/07/12 12:20:31;;;;;;;1.38;0.80;;;26.10;99.90;;;;;;5039757;28;20091;-67
2022/07/12 12:23:01;;;;;;;1.17;0.77;;;26.20;99.90;;;;;;5049288;28;20493;-68
2022/07/12 12:25:29;;;;;;;1.70;1.27;;;26.20;99.90;;;;;;5055367;28;20048;-68
2022/07/12 12:28:06;;;;;;;3.17;1.00;;;26.20;99.90;;;;;;5055750;28;20127;-69
2022/07/12 12:30:35;;;;;;;3.53;1.27;;;26.10;99.90;;;;;;5052072;28;20057;-68
2022/07/12 12:33:04;;;;;;;5.03;1.23;;;26.20;99.90;;;;;;5053626;28;20090;-68
2022/07/12 12:35:31;;;;;;;1.23;0.80;;;26.20;99.90;;;;;;5056386;28;20504;-68
2022/07/12 12:37:58;;;;;;;4.30;1.00;;;26.30;99.90;;;;;;5040077;28;20040;-69
2022/07/12 12:40:26;;;;;;;1.55;0.70;;;26.40;99.90;;;;;;5041594;28;20102;-68
2022/07/12 12:42:52;;;;;;;1.70;0.50;;;26.50;99.90;;;;;;5038751;28;20128;-68
2022/07/12 12:45:24;;;;;;;0.55;0.40;;;26.50;99.90;;;;;;5045262;28;20041;-68
2022/07/12 12:48:03;;;;;;;0.95;0.50;;;26.50;99.90;;;;;;5042026;28;20124;-68
2022/07/12 12:50:36;;;;;;;1.80;0.52;;;26.60;99.90;;;;;;5039465;28;20803;-68
2022/07/12 12:53:11;;;;;;;1.08;0.60;;;26.60;98.00;;;;;;5051933;28;20030;-68
2022/07/12 12:55:37;;;;;;;0.93;0.60;;;26.60;99.90;;;;;;5043460;28;20041;-68
2022/07/12 12:58:04;;;;;;;0.73;0.50;;;26.50;96.10;;;;;;5024372;28;20041;-68
2022/07/12 13:00:30;;;;;;;0.70;0.40;;;26.50;96.90;;;;;;5035805;28;20045;-68
2022/07/12 13:03:00;;;;;;;4.35;0.60;;;26.50;98.20;;;;;;5040246;28;20068;-68
2022/07/12 13:05:27;;;;;;;3.90;0.98;;;26.40;98.40;;;;;;5041558;28;20148;-69
2022/07/12 13:07:53;;;;;;;1.48;0.80;;;26.40;99.90;;;;;;5038097;28;20035;-69
2022/07/12 13:10:19;;;;;;;1.20;0.60;;;26.40;99.60;;;;;;5026648;28;20398;-68
2022/07/12 13:12:44;;;;;;;1.52;0.57;;;26.40;99.80;;;;;;5039120;28;20049;-69
2022/07/12 13:15:10;;;;;;;1.92;0.63;;;26.40;99.10;;;;;;5037924;28;20082;-69
2022/07/12 13:17:37;;;;;;;2.60;0.70;;;26.30;99.70;;;;;;5043772;28;20207;-68
2022/07/12 13:20:04;;;;;;;1.42;0.80;;;26.40;99.10;;;;;;5030445;28;20041;-68
2022/07/12 13:22:30;;;;;;;0.80;0.50;;;26.30;98.20;;;;;;5025457;28;20072;-68
2022/07/12 13:24:55;;;;;;;0.32;0.30;;;26.20;98.00;;;;;;5036570;28;20064;-68
2022/07/12 13:27:21;;;;;;;0.98;0.40;;;26.20;97.10;;;;;;5034433;28;20041;-68
2022/07/12 13:29:47;;;;;;;1.23;0.40;;;26.20;95.90;;;;;;5038192;28;20044;-68
2022/07/12 13:32:12;;;;;;;0.25;0.20;;;26.10;95.90;;;;;;5034742;28;21176;-68
2022/07/12 13:34:38;;;;;;;1.02;0.50;;;26.00;93.30;;;;;;5038422;28;20037;-69
2022/07/12 13:37:04;;;;;;;0.65;0.20;;;25.90;86.60;;;;;;5036593;28;20055;-68
2022/07/12 13:42:14;;;;;;;2.35;0.40;;;25.70;86.90;;;;;;5035322;28;20046;-68
2022/07/12 13:44:42;;;;;;;0.50;0.30;;;25.70;85.40;;;;;;5045583;28;20519;-69
2022/07/12 13:47:07;;;;;;;1.02;0.50;;;25.70;83.80;;;;;;5030230;28;20042;-69
2022/07/12 13:49:33;;;;;;;0.40;0.40;;;25.60;81.70;;;;;;5030444;28;20108;-68
2022/07/12 13:52:01;;;;;;;0.70;0.45;;;25.60;84.80;;;;;;5040067;28;20136;-68
2022/07/12 13:54:27;;;;;;;1.67;0.50;;;25.60;89.10;;;;;;5031504;28;20099;-68
2022/07/12 13:56:53;;;;;;;1.17;0.47;;;25.60;84.60;;;;;;5032657;28;20064;-68
2022/07/12 13:59:19;;;;;;;0.65;0.40;;;25.60;88.20;;;;;;5040168;28;20121;-68
2022/07/12 14:01:44;;;;;;;1.27;0.80;;;25.60;86.00;;;;;;5035480;28;20473;-68
2022/07/12 14:04:10;;;;;;;2.35;0.80;;;25.70;89.30;;;;;;5030671;28;20041;-68
2022/07/12 14:06:36;;;;;;;1.17;0.57;;;25.70;87.40;;;;;;5052687;28;20048;-68
2022/07/12 14:09:01;;;;;;;0.63;0.45;;;25.60;84.70;;;;;;5040182;28;20489;-69
2022/07/12 14:11:27;;;;;;;1.00;0.60;;;25.50;82.60;;;;;;5037493;28;20044;-69
2022/07/12 14:13:53;;;;;;;0.60;0.40;;;25.50;82.30;;;;;;5041714;28;20041;-69
2022/07/12 14:16:18;;;;;;;1.13;0.60;;;25.50;84.00;;;;;;5033151;28;20044;-68